createdAt,value
2022-12-15T00:00:41.386Z,40.67
2022-12-15T00:03:27.812Z,42.28
2022-12-15T00:06:14.181Z,38.97
2022-12-15T00:09:00.344Z,39.53
2022-12-15T00:11:49.554Z,38.05
2022-12-15T00:14:36.834Z,46.00
2022-12-15T00:17:23.140Z,43.15
2022-12-15T00:20:09.534Z,41.08
2022-12-15T00:22:55.720Z,44.67
2022-12-15T00:25:41.673Z,41.83
2022-12-15T00:28:27.878Z,41.20
2022-12-15T00:31:17.363Z,41.13
2022-12-15T00:34:03.574Z,46.55
2022-12-15T00:36:49.978Z,42.45
2022-12-15T00:39:18.782Z,37.47
2022-12-15T00:41:47.455Z,39.45
2022-12-15T00:44:20.452Z,45.55
2022-12-15T00:46:55.960Z,38.42
2022-12-15T00:49:43.020Z,40.78
2022-12-15T00:52:29.362Z,41.17
2022-12-15T00:55:15.395Z,37.95
2022-12-15T00:58:01.630Z,41.75
2022-12-15T01:00:47.741Z,43.75
2022-12-15T01:03:37.577Z,46.45
2022-12-15T01:06:24.742Z,43.75
2022-12-15T01:09:10.893Z,43.35
2022-12-15T01:11:57.413Z,46.05
2022-12-15T01:14:43.964Z,46.17
2022-12-15T01:17:30.595Z,47.97
2022-12-15T01:20:19.370Z,43.10
2022-12-15T01:22:49.447Z,41.35
2022-12-15T01:25:19.667Z,43.35
2022-12-15T01:27:48.709Z,42.40
2022-12-15T01:30:21.379Z,38.40
2022-12-15T01:32:50.429Z,41.70
2022-12-15T01:35:21.222Z,45.55
2022-12-15T01:37:50.447Z,38.80
2022-12-15T01:40:38.378Z,46.92
2022-12-15T01:43:13.489Z,44.00
2022-12-15T01:46:00.121Z,39.22
2022-12-15T01:48:39.789Z,40.08
2022-12-15T01:51:26.419Z,43.60
2022-12-15T01:54:00.362Z,42.65
2022-12-15T01:56:36.870Z,36.40
2022-12-15T01:59:08.856Z,38.90
2022-12-15T02:01:38.564Z,46.25
2022-12-15T02:06:40.374Z,39.25
2022-12-15T02:09:09.552Z,43.72
2022-12-15T02:11:53.545Z,41.42
2022-12-15T02:14:29.550Z,35.95
2022-12-15T02:17:11.552Z,38.17
2022-12-15T02:20:07.564Z,38.50
2022-12-15T02:22:54.600Z,40.03
2022-12-15T02:25:42.326Z,37.97
2022-12-15T02:28:14.656Z,41.47
2022-12-15T02:31:10.851Z,38.08
2022-12-15T02:33:46.249Z,39.03
2022-12-15T02:36:22.724Z,36.30
2022-12-15T02:38:51.686Z,35.72
2022-12-15T02:41:37.929Z,38.70
2022-12-15T02:44:18.147Z,40.58
2022-12-15T02:46:58.294Z,39.58
2022-12-15T02:49:39.263Z,39.58
2022-12-15T02:52:23.640Z,37.35
2022-12-15T02:55:05.878Z,36.28
2022-12-15T02:57:41.678Z,37.25
2022-12-15T03:00:13.392Z,35.67
2022-12-15T03:02:49.642Z,33.28
2022-12-15T03:05:20.196Z,41.28
2022-12-15T03:07:51.854Z,39.45
2022-12-15T03:10:21.839Z,38.38
2022-12-15T03:12:51.120Z,33.95
2022-12-15T03:15:20.642Z,39.22
2022-12-15T03:17:50.687Z,41.33
2022-12-15T03:20:19.238Z,38.42
2022-12-15T03:22:47.803Z,38.92
2022-12-15T03:25:16.583Z,43.00
2022-12-15T03:27:47.570Z,45.33
2022-12-15T03:30:16.505Z,44.78
2022-12-15T03:32:45.102Z,43.80
2022-12-15T03:35:15.489Z,39.95
2022-12-15T03:37:44.171Z,44.88
2022-12-15T03:40:15.101Z,39.85
2022-12-15T03:42:52.054Z,42.67
2022-12-15T03:45:22.492Z,52.88
2022-12-15T03:47:52.974Z,42.75
2022-12-15T03:50:24.334Z,46.70
2022-12-15T03:52:54.068Z,38.50
2022-12-15T03:55:23.509Z,42.85
2022-12-15T03:57:52.339Z,44.15
2022-12-15T04:00:22.570Z,39.10
2022-12-15T04:02:52.338Z,40.05
2022-12-15T04:05:25.822Z,42.22
2022-12-15T04:07:54.419Z,40.88
2022-12-15T04:10:27.294Z,38.88
2022-12-15T04:12:59.854Z,39.67
2022-12-15T04:18:01.041Z,37.30
2022-12-15T04:20:31.207Z,38.83
2022-12-15T04:23:00.431Z,39.53
2022-12-15T04:25:46.857Z,38.00
2022-12-15T04:28:33.024Z,38.20
2022-12-15T04:31:22.499Z,38.20
2022-12-15T04:34:10.829Z,41.80
2022-12-15T04:37:00.817Z,39.30
2022-12-15T04:39:47.000Z,40.78
2022-12-15T04:42:33.765Z,38.50
2022-12-15T04:45:22.745Z,38.58
2022-12-15T04:48:09.130Z,35.83
2022-12-15T04:50:55.738Z,38.33
2022-12-15T04:53:43.568Z,41.08
2022-12-15T04:56:30.371Z,44.08
2022-12-15T04:59:16.591Z,37.92
2022-12-15T05:02:03.268Z,42.95
2022-12-15T05:04:49.744Z,46.40
2022-12-15T05:07:35.980Z,42.63
2022-12-15T05:10:24.538Z,39.42
2022-12-15T05:13:10.633Z,41.33
2022-12-15T05:15:56.715Z,39.90
2022-12-15T05:18:42.996Z,42.50
2022-12-15T05:21:29.042Z,44.47
2022-12-15T05:24:15.243Z,38.65
2022-12-15T05:27:02.809Z,46.03
2022-12-15T05:29:49.262Z,42.38
2022-12-15T05:32:17.853Z,39.47
2022-12-15T05:34:46.379Z,36.72
2022-12-15T05:37:15.224Z,44.30
2022-12-15T05:39:43.863Z,38.83
2022-12-15T05:42:14.147Z,44.42
2022-12-15T05:44:43.444Z,39.17
2022-12-15T05:47:13.183Z,42.40
2022-12-15T05:52:10.173Z,40.72
2022-12-15T05:54:38.835Z,43.80
2022-12-15T05:57:07.444Z,38.25
2022-12-15T05:59:37.415Z,41.67
2022-12-15T06:02:06.040Z,44.40
2022-12-15T06:04:34.738Z,35.78
2022-12-15T06:07:03.390Z,39.38
2022-12-15T06:09:31.990Z,41.42
2022-12-15T06:12:00.498Z,31.73
2022-12-15T06:14:29.058Z,41.90
2022-12-15T06:17:00.144Z,35.25
2022-12-15T06:19:28.863Z,37.10
2022-12-15T06:21:57.478Z,36.67
2022-12-15T06:24:26.296Z,38.22
2022-12-15T06:26:54.816Z,40.00
2022-12-15T06:29:23.563Z,35.40
2022-12-15T06:31:52.304Z,39.15
2022-12-15T06:34:22.483Z,43.33
2022-12-15T06:36:51.549Z,32.10
2022-12-15T06:39:20.565Z,40.50
2022-12-15T06:41:49.271Z,36.60
2022-12-15T06:44:18.203Z,35.33
2022-12-15T06:46:46.951Z,27.03
2022-12-15T06:49:15.978Z,31.63
2022-12-15T06:51:45.904Z,33.70
2022-12-15T06:54:14.668Z,29.98
2022-12-15T06:56:43.580Z,33.97
2022-12-15T06:59:13.491Z,36.10
2022-12-15T07:01:43.264Z,34.75
2022-12-15T07:04:12.426Z,34.15
2022-12-15T07:06:42.539Z,40.22
2022-12-15T07:09:17.323Z,32.45
2022-12-15T07:11:49.342Z,38.45
2022-12-15T07:14:17.917Z,35.92
2022-12-15T07:16:46.652Z,36.20
2022-12-15T07:19:15.408Z,42.08
2022-12-15T07:21:43.981Z,73.85
2022-12-15T07:24:15.075Z,97.35
2022-12-15T07:26:44.583Z,60.70
2022-12-15T07:29:18.153Z,75.70
2022-12-15T07:31:49.901Z,52.75
2022-12-15T07:34:18.619Z,48.58
2022-12-15T07:36:51.866Z,50.67
2022-12-15T07:39:22.504Z,90.30
2022-12-15T07:41:51.079Z,46.72
2022-12-15T07:44:20.123Z,63.80
2022-12-15T07:46:49.971Z,46.58
2022-12-15T07:51:47.315Z,41.95
2022-12-15T07:54:16.232Z,38.72
2022-12-15T07:56:50.360Z,35.50
2022-12-15T07:59:19.887Z,39.92
2022-12-15T08:01:49.604Z,39.83
2022-12-15T08:04:19.086Z,37.15
2022-12-15T08:06:47.635Z,34.63
2022-12-15T08:09:16.236Z,36.00
2022-12-15T08:11:46.243Z,42.40
2022-12-15T08:14:18.006Z,57.05
2022-12-15T08:16:47.645Z,47.10
2022-12-15T08:19:18.069Z,29.77
2022-12-15T08:21:47.399Z,38.33
2022-12-15T08:24:17.034Z,39.13
2022-12-15T08:26:50.673Z,38.22
2022-12-15T08:32:08.852Z,44.60
2022-12-15T08:34:37.548Z,46.50
2022-12-15T08:37:06.251Z,36.30
2022-12-15T08:39:34.846Z,36.03
2022-12-15T08:42:04.924Z,36.08
2022-12-15T08:44:33.772Z,36.40
2022-12-15T08:47:02.333Z,35.92
2022-12-15T08:49:30.950Z,34.78
2022-12-15T08:51:59.622Z,38.67
2022-12-15T08:54:28.163Z,36.90
2022-12-15T08:56:56.756Z,34.15
2022-12-15T08:59:27.267Z,37.58
2022-12-15T09:01:55.949Z,39.53
2022-12-15T09:04:24.894Z,32.55
2022-12-15T09:06:53.532Z,32.00
2022-12-15T09:09:22.214Z,35.55
2022-12-15T09:11:51.287Z,35.38
2022-12-15T09:14:27.128Z,32.20
2022-12-15T09:16:59.009Z,35.42
2022-12-15T09:19:28.017Z,37.22
2022-12-15T09:21:56.639Z,37.30
2022-12-15T09:24:34.340Z,35.45
2022-12-15T09:27:04.547Z,38.33
2022-12-15T09:29:33.396Z,35.17
2022-12-15T09:32:06.574Z,38.17
2022-12-15T09:34:39.619Z,33.17
2022-12-15T09:37:08.129Z,34.03
2022-12-15T09:39:38.024Z,32.60
2022-12-15T09:42:07.026Z,35.03
2022-12-15T09:44:35.676Z,31.55
2022-12-15T09:47:17.030Z,35.15
2022-12-15T09:49:54.338Z,29.15
2022-12-15T09:52:26.656Z,31.95
2022-12-15T09:54:55.461Z,34.03
2022-12-15T09:57:34.663Z,34.95
2022-12-15T10:00:15.540Z,37.97
2022-12-15T10:03:11.302Z,66.32
2022-12-15T10:08:47.137Z,132.55
2022-12-15T10:11:25.662Z,41.13
2022-12-15T10:13:59.202Z,38.10
2022-12-15T10:16:35.721Z,35.92
2022-12-15T10:19:10.526Z,32.78
2022-12-15T10:21:39.330Z,30.33
2022-12-15T10:24:31.661Z,34.25
2022-12-15T10:27:21.609Z,36.63
2022-12-15T10:29:58.645Z,29.35
2022-12-15T10:32:42.450Z,30.23
2022-12-15T10:35:18.246Z,29.27
2022-12-15T10:37:47.135Z,35.85
2022-12-15T10:40:27.463Z,33.35
2022-12-15T10:42:56.122Z,30.75
2022-12-15T10:45:36.879Z,28.73
2022-12-15T10:48:07.045Z,27.58
2022-12-15T10:50:37.236Z,33.45
2022-12-15T10:53:10.091Z,35.10
2022-12-15T10:55:40.568Z,34.38
2022-12-15T10:58:19.496Z,30.88
2022-12-15T11:00:50.958Z,33.53
2022-12-15T11:03:25.232Z,34.75
2022-12-15T11:05:57.539Z,34.58
2022-12-15T11:08:27.560Z,31.25
2022-12-15T11:11:15.587Z,32.97
2022-12-15T11:14:04.801Z,30.58
2022-12-15T11:16:33.503Z,30.88
2022-12-15T11:19:12.286Z,29.45
2022-12-15T11:21:46.568Z,30.08
2022-12-15T11:24:26.022Z,31.30
2022-12-15T11:26:59.960Z,35.00
2022-12-15T11:29:34.922Z,32.88
2022-12-15T11:32:07.282Z,32.58
2022-12-15T11:34:39.014Z,37.08
2022-12-15T11:37:40.279Z,35.10
2022-12-15T11:40:36.811Z,34.45
2022-12-15T11:43:37.630Z,34.65
2022-12-15T11:46:22.844Z,33.70
2022-12-15T11:49:15.149Z,33.75
2022-12-15T11:51:50.267Z,31.48
2022-12-15T11:54:28.931Z,36.67
2022-12-15T11:57:04.385Z,35.78
2022-12-15T11:59:53.094Z,34.13
2022-12-15T12:02:39.799Z,32.42
2022-12-15T12:05:47.993Z,69.15
2022-12-15T12:08:37.210Z,210.63
2022-12-15T12:11:13.550Z,223.60
2022-12-15T12:13:54.891Z,90.32
2022-12-15T12:16:36.174Z,56.72
2022-12-15T12:19:11.247Z,39.10
2022-12-15T12:21:44.450Z,36.55
2022-12-15T12:24:22.392Z,37.30
2022-12-15T12:26:56.234Z,37.17
2022-12-15T12:29:34.099Z,35.95
2022-12-15T12:32:09.361Z,36.05
2022-12-15T12:35:31.178Z,33.35
2022-12-15T12:37:58.109Z,34.30
2022-12-15T12:40:41.526Z,37.33
2022-12-15T12:43:14.138Z,38.85
2022-12-15T12:45:51.079Z,36.35
2022-12-15T12:48:27.339Z,39.22
2022-12-15T12:51:24.156Z,34.72
2022-12-15T12:53:53.879Z,42.25
2022-12-15T12:56:34.967Z,35.58
2022-12-15T12:59:08.916Z,41.70
2022-12-15T13:01:39.307Z,79.38
2022-12-15T13:04:13.345Z,62.47
2022-12-15T13:07:03.238Z,75.45
2022-12-15T13:10:02.200Z,44.20
2022-12-15T13:12:53.454Z,40.53
2022-12-15T13:15:39.255Z,45.25
2022-12-15T13:18:16.565Z,45.83
2022-12-15T13:20:48.790Z,43.13
2022-12-15T13:23:41.642Z,41.05
2022-12-15T13:26:15.235Z,35.45
2022-12-15T13:31:56.571Z,40.63
2022-12-15T13:34:29.404Z,40.95
2022-12-15T13:37:00.018Z,41.75
2022-12-15T13:39:56.465Z,95.10
2022-12-15T13:42:45.282Z,64.00
2022-12-15T13:45:45.545Z,43.47
2022-12-15T13:48:39.036Z,53.20
2022-12-15T13:51:32.640Z,52.70
2022-12-15T13:54:05.466Z,39.00
2022-12-15T13:56:47.038Z,38.50
2022-12-15T13:59:42.423Z,43.88
2022-12-15T14:02:26.520Z,41.65
2022-12-15T14:05:14.419Z,41.45
2022-12-15T14:07:54.197Z,39.38
2022-12-15T14:10:26.164Z,43.55
2022-12-15T14:12:59.952Z,39.40
2022-12-15T14:15:32.369Z,43.38
2022-12-15T14:18:06.813Z,42.50
2022-12-15T14:20:42.312Z,40.28
2022-12-15T14:23:22.569Z,39.28
2022-12-15T14:26:06.503Z,36.45
2022-12-15T14:28:37.424Z,41.42
2022-12-15T14:31:14.801Z,43.30
2022-12-15T14:33:45.751Z,49.53
2022-12-15T14:36:24.747Z,43.60
2022-12-15T14:39:00.247Z,46.00
2022-12-15T14:41:31.050Z,39.65
2022-12-15T14:44:31.416Z,48.33
2022-12-15T14:46:52.832Z,148.15
2022-12-15T14:49:28.331Z,96.38
2022-12-15T14:52:01.677Z,57.65
2022-12-15T14:54:39.618Z,79.28
2022-12-15T14:57:16.125Z,47.85
2022-12-15T14:59:46.639Z,60.55
2022-12-15T15:02:22.989Z,78.68
2022-12-15T15:03:07.443Z,39.88
2022-12-15T15:05:06.323Z,164.82
2022-12-15T15:07:37.521Z,69.43
2022-12-15T15:10:23.428Z,51.50
2022-12-15T15:12:54.073Z,52.00
2022-12-15T15:15:26.767Z,51.63
2022-12-15T15:17:58.445Z,49.47
2022-12-15T15:20:29.340Z,51.92
2022-12-15T15:23:14.366Z,52.63
2022-12-15T15:25:50.777Z,48.30
2022-12-15T15:28:25.523Z,45.97
2022-12-15T15:31:00.595Z,52.97
2022-12-15T15:33:29.705Z,53.63
2022-12-15T15:36:03.326Z,52.83
2022-12-15T15:38:42.348Z,48.20
2022-12-15T15:41:21.174Z,46.25
2022-12-15T15:43:50.711Z,48.53
2022-12-15T15:46:23.970Z,47.13
2022-12-15T15:48:55.148Z,48.70
2022-12-15T15:51:26.775Z,43.58
2022-12-15T15:54:02.575Z,47.58
2022-12-15T15:56:32.710Z,52.53
2022-12-15T15:59:17.309Z,51.42
2022-12-15T16:01:53.309Z,49.58
2022-12-15T16:04:22.338Z,54.92
2022-12-15T16:06:52.409Z,54.08
2022-12-15T16:09:21.296Z,56.25
2022-12-15T16:11:55.712Z,52.27
2022-12-15T16:14:24.359Z,64.63
2022-12-15T16:16:54.992Z,59.78
2022-12-15T16:19:24.092Z,59.05
2022-12-15T16:21:53.386Z,51.22
2022-12-15T16:24:36.005Z,48.85
2022-12-15T16:27:06.357Z,54.65
2022-12-15T16:29:35.075Z,54.08
2022-12-15T16:32:06.475Z,58.72
2022-12-15T16:34:37.733Z,59.38
2022-12-15T16:37:13.566Z,52.15
2022-12-15T16:39:42.331Z,55.67
2022-12-15T16:42:13.714Z,52.38
2022-12-15T16:44:42.426Z,49.30
2022-12-15T16:47:14.210Z,48.80
2022-12-15T16:49:42.996Z,56.17
2022-12-15T16:52:23.135Z,51.95
2022-12-15T16:54:58.546Z,51.33
2022-12-15T16:57:37.090Z,52.08
2022-12-15T17:00:17.094Z,51.75
2022-12-15T17:02:46.118Z,58.22
2022-12-15T17:05:16.935Z,53.97
2022-12-15T17:07:53.630Z,54.13
2022-12-15T17:10:25.222Z,55.63
2022-12-15T17:13:06.804Z,55.67
2022-12-15T17:15:36.937Z,57.63
2022-12-15T17:18:17.611Z,60.03
2022-12-15T17:20:59.657Z,58.38
2022-12-15T17:23:53.738Z,58.67
2022-12-15T17:26:30.080Z,56.00
2022-12-15T17:29:21.216Z,62.40
2022-12-15T17:31:59.177Z,57.53
2022-12-15T17:35:33.681Z,48.33
2022-12-15T17:38:17.111Z,58.13
2022-12-15T17:41:04.023Z,55.83
2022-12-15T17:44:24.054Z,58.38
2022-12-15T17:46:55.579Z,59.50
2022-12-15T17:49:40.493Z,54.05
2022-12-15T17:52:33.951Z,55.22
2022-12-15T17:55:33.318Z,60.65
2022-12-15T17:58:23.512Z,57.35
2022-12-15T18:00:59.768Z,61.53
2022-12-15T18:04:17.885Z,60.85
2022-12-15T18:07:11.561Z,61.80
2022-12-15T18:09:53.736Z,64.45
2022-12-15T18:12:47.081Z,62.53
2022-12-15T18:15:30.463Z,55.65
2022-12-15T18:18:23.048Z,55.35
2022-12-15T18:21:01.369Z,64.28
2022-12-15T18:23:35.777Z,54.95
2022-12-15T18:26:33.248Z,67.72
2022-12-15T18:29:33.061Z,58.00
2022-12-15T18:32:31.100Z,58.50
2022-12-15T18:35:30.649Z,55.53
2022-12-15T18:38:39.363Z,63.42
2022-12-15T18:41:24.939Z,63.47
2022-12-15T18:44:08.909Z,52.25
2022-12-15T18:47:48.159Z,59.95
2022-12-15T18:49:35.437Z,58.80
2022-12-15T18:52:04.068Z,61.05
2022-12-15T18:54:41.512Z,57.67
2022-12-15T18:57:38.443Z,66.07
2022-12-15T19:00:39.307Z,62.25
2022-12-15T19:03:36.791Z,57.28
2022-12-15T19:06:26.043Z,55.35
2022-12-15T19:09:14.456Z,62.80
2022-12-15T19:12:12.698Z,57.45
2022-12-15T19:15:01.026Z,60.72
2022-12-15T19:17:59.082Z,57.75
2022-12-15T19:20:59.990Z,59.78
2022-12-15T19:23:47.385Z,73.22
2022-12-15T19:26:34.858Z,64.93
2022-12-15T19:29:26.374Z,68.30
2022-12-15T19:32:13.038Z,57.95
2022-12-15T19:41:42.344Z,58.45
2022-12-15T19:44:22.971Z,72.40
2022-12-15T19:47:36.655Z,65.40
2022-12-15T19:50:36.832Z,63.15
2022-12-15T19:54:06.686Z,60.83
2022-12-15T19:57:02.037Z,68.57
2022-12-15T20:00:04.494Z,67.30
2022-12-15T20:03:06.847Z,60.00
2022-12-15T20:06:19.147Z,55.38
2022-12-15T20:09:17.860Z,56.85
2022-12-15T20:18:49.507Z,60.30
2022-12-15T20:21:47.858Z,63.55
2022-12-15T20:24:26.098Z,63.05
2022-12-15T20:26:54.934Z,66.97
2022-12-15T20:29:26.502Z,53.90
2022-12-15T20:31:59.725Z,63.50
2022-12-15T20:34:30.090Z,62.63
2022-12-15T20:36:59.173Z,60.30
2022-12-15T20:39:38.096Z,60.10
2022-12-15T20:42:08.099Z,61.23
2022-12-15T20:44:36.907Z,63.50
2022-12-15T20:47:11.341Z,64.90
2022-12-15T20:49:42.065Z,71.05
2022-12-15T20:52:20.145Z,80.78
2022-12-15T20:54:51.094Z,71.90
2022-12-15T20:57:19.778Z,76.28
2022-12-15T20:59:49.867Z,65.78
2022-12-15T21:04:51.128Z,71.70
2022-12-15T21:07:21.728Z,66.50
2022-12-15T21:09:50.435Z,66.43
2022-12-15T21:12:21.181Z,64.18
2022-12-15T21:14:51.150Z,77.93
2022-12-15T21:19:59.673Z,71.88
2022-12-15T21:22:30.750Z,62.70
2022-12-15T21:25:01.092Z,64.80
2022-12-15T21:27:54.792Z,72.35
2022-12-15T21:30:45.782Z,72.47
2022-12-15T21:33:42.278Z,70.47
2022-12-15T21:36:44.104Z,69.40
2022-12-15T21:39:43.093Z,63.95
2022-12-15T21:42:54.917Z,67.88
2022-12-15T21:45:44.456Z,59.10
2022-12-15T21:48:41.932Z,69.65
2022-12-15T21:51:46.675Z,59.17
2022-12-15T21:54:56.582Z,67.03
2022-12-15T21:57:57.120Z,65.13
2022-12-15T22:01:05.743Z,63.33
2022-12-15T22:04:11.443Z,61.70
2022-12-15T22:07:43.490Z,65.97
2022-12-15T22:10:37.584Z,63.35
2022-12-15T22:13:22.789Z,67.75
2022-12-15T22:16:25.840Z,66.68
2022-12-15T22:19:18.730Z,64.22
2022-12-15T22:22:17.466Z,69.80
2022-12-15T22:28:11.431Z,70.07
2022-12-15T22:31:28.002Z,71.00
2022-12-15T22:34:33.740Z,68.38
2022-12-15T22:37:20.963Z,63.95
2022-12-15T22:40:45.158Z,67.43
2022-12-15T22:43:42.921Z,62.22
2022-12-15T22:46:45.161Z,62.53
2022-12-15T22:49:39.420Z,66.57
2022-12-15T22:52:26.933Z,63.85
2022-12-15T22:54:57.181Z,62.25
2022-12-15T22:57:32.053Z,61.58
2022-12-15T23:00:04.451Z,63.17
2022-12-15T23:02:36.675Z,67.85
2022-12-15T23:05:06.600Z,64.20
2022-12-15T23:07:41.242Z,60.28
2022-12-15T23:10:36.618Z,68.72
2022-12-15T23:13:10.699Z,63.30
2022-12-15T23:15:59.781Z,79.25
2022-12-15T23:18:37.338Z,67.97
2022-12-15T23:21:10.629Z,69.30
2022-12-15T23:23:41.894Z,78.75
2022-12-15T23:26:15.977Z,80.68
2022-12-15T23:28:55.212Z,78.78
2022-12-15T23:31:36.388Z,78.43
2022-12-15T23:34:11.037Z,82.40
2022-12-15T23:36:47.171Z,86.10
2022-12-15T23:39:24.045Z,84.88
2022-12-15T23:41:52.907Z,75.43
2022-12-15T23:44:23.581Z,79.43
2022-12-15T23:46:52.750Z,80.13
2022-12-15T23:49:23.932Z,81.13
2022-12-15T23:51:53.062Z,77.55
2022-12-15T23:54:24.209Z,79.40
2022-12-15T23:56:58.269Z,88.03
2022-12-15T23:59:33.561Z,81.82
